Time,TemperatureF,DewpointF,PressureIn,WindDirection,WindDirectionDegrees,WindSpeedMPH,WindSpeedGustMPH,Humidity,HourlyPrecipIn,Conditions,Clouds,dailyrainin,SoftwareType,DateUTC
2013-05-06 00:03:00,40.1,37.0,30.24,SSW,208,0.0,0.0,88,0.00,,,0.00,weatherlink.com 1.10,2013-05-06 04:03:00,
2013-05-06 00:18:00,39.8,37.0,30.25,SSW,208,0.0,0.0,89,0.00,,,0.00,weatherlink.com 1.10,2013-05-06 04:18:00,
2013-05-06 00:33:00,39.5,37.0,30.24,SSW,209,0.0,0.0,89,0.00,,,0.00,weatherlink.com 1.10,2013-05-06 04:33:00,
2013-05-06 00:48:00,39.1,36.0,30.25,SSW,208,0.0,0.0,89,0.00,,,0.00,weatherlink.com 1.10,2013-05-06 04:48:00,
2013-05-06 01:03:00,38.9,36.0,30.24,SSW,210,1.0,1.0,90,0.00,,,0.00,weatherlink.com 1.10,2013-05-06 05:03:00,
2013-05-06 01:18:00,38.5,36.0,30.25,SSW,210,0.0,1.0,90,0.00,,,0.00,weatherlink.com 1.10,2013-05-06 05:18:00,
2013-05-06 01:33:00,38.0,36.0,30.24,SSW,210,0.0,0.0,91,0.00,,,0.00,weatherlink.com 1.10,2013-05-06 05:33:00,
2013-05-06 01:48:00,37.7,36.0,30.24,SSW,210,0.0,0.0,92,0.00,,,0.00,weatherlink.com 1.10,2013-05-06 05:48:00,
2013-05-06 02:03:00,37.5,35.0,30.24,SSW,210,1.0,1.0,92,0.00,,,0.00,weatherlink.com 1.10,2013-05-06 06:03:00,
2013-05-06 02:18:00,37.3,36.0,30.23,SSW,210,1.0,1.0,93,0.00,,,0.00,weatherlink.com 1.10,2013-05-06 06:18:00,
2013-05-06 02:33:00,37.0,35.0,30.23,SSW,210,0.0,0.0,93,0.00,,,0.00,weatherlink.com 1.10,2013-05-06 06:33:00,
2013-05-06 02:48:00,36.7,35.0,30.23,SSW,210,0.0,1.0,94,0.00,,,0.00,weatherlink.com 1.10,2013-05-06 06:48:00,
2013-05-06 03:03:00,36.7,35.0,30.23,SSW,210,0.0,1.0,94,0.00,,,0.00,weatherlink.com 1.10,2013-05-06 07:03:00,
2013-05-06 03:18:00,36.5,35.0,30.23,SSW,210,1.0,1.0,94,0.00,,,0.00,weatherlink.com 1.10,2013-05-06 07:18:00,
2013-05-06 03:33:00,36.6,35.0,30.23,SSW,210,0.0,1.0,95,0.00,,,0.00,weatherlink.com 1.10,2013-05-06 07:33:00,
2013-05-06 03:49:00,36.5,35.0,30.22,SSW,210,0.0,1.0,95,0.00,,,0.00,weatherlink.com 1.10,2013-05-06 07:49:00,
2013-05-06 04:03:00,36.5,35.0,30.22,SSW,210,0.0,1.0,95,0.00,,,0.00,weatherlink.com 1.10,2013-05-06 08:03:00,
2013-05-06 04:18:00,36.5,36.0,30.22,SSW,210,0.0,0.0,96,0.00,,,0.00,weatherlink.com 1.10,2013-05-06 08:18:00,
2013-05-06 04:33:00,36.6,36.0,30.23,SSW,210,0.0,0.0,96,0.00,,,0.00,weatherlink.com 1.10,2013-05-06 08:33:00,
2013-05-06 04:48:00,36.7,36.0,30.23,SSW,210,0.0,0.0,96,0.00,,,0.00,weatherlink.com 1.10,2013-05-06 08:48:00,
2013-05-06 05:03:00,37.0,36.0,30.23,SSW,210,0.0,0.0,97,0.00,,,0.00,weatherlink.com 1.10,2013-05-06 09:03:00,
2013-05-06 05:18:00,36.9,36.0,30.23,SSW,210,0.0,0.0,96,0.00,,,0.00,weatherlink.com 1.10,2013-05-06 09:18:00,
2013-05-06 05:33:00,36.8,36.0,30.23,SSW,210,0.0,0.0,96,0.00,,,0.00,weatherlink.com 1.10,2013-05-06 09:33:00,
2013-05-06 05:48:00,36.6,36.0,30.23,SSW,210,0.0,0.0,96,0.00,,,0.00,weatherlink.com 1.10,2013-05-06 09:48:00,
2013-05-06 06:03:00,36.5,36.0,30.24,SSW,210,0.0,0.0,97,0.00,,,0.00,weatherlink.com 1.10,2013-05-06 10:03:00,
2013-05-06 06:18:00,36.7,36.0,30.24,SSW,210,0.0,0.0,97,0.00,,,0.00,weatherlink.com 1.10,2013-05-06 10:18:00,
2013-05-06 06:33:00,37.1,36.0,30.24,SSW,210,0.0,0.0,97,0.00,,,0.00,weatherlink.com 1.10,2013-05-06 10:33:00,
2013-05-06 06:48:00,37.6,37.0,30.24,SSW,210,0.0,0.0,97,0.00,,,0.00,weatherlink.com 1.10,2013-05-06 10:48:00,
2013-05-06 07:03:00,38.1,37.0,30.25,SSW,208,0.0,0.0,97,0.00,,,0.00,weatherlink.com 1.10,2013-05-06 11:03:00,
2013-05-06 07:18:00,39.1,38.0,30.25,SSW,198,0.0,1.0,97,0.00,,,0.00,weatherlink.com 1.10,2013-05-06 11:18:00,
2013-05-06 07:33:00,40.0,39.0,30.25,SSE,158,0.0,1.0,95,0.00,,,0.00,weatherlink.com 1.10,2013-05-06 11:33:00,
2013-05-06 07:48:00,41.4,40.0,30.25,SSW,198,0.0,2.0,95,0.00,,,0.00,weatherlink.com 1.10,2013-05-06 11:48:00,
2013-05-06 08:03:00,42.8,41.0,30.25,ESE,122,1.0,1.0,92,0.00,,,0.00,weatherlink.com 1.10,2013-05-06 12:03:00,
2013-05-06 08:18:00,44.3,41.0,30.25,SE,142,1.0,3.0,89,0.00,,,0.00,weatherlink.com 1.10,2013-05-06 12:18:00,
2013-05-06 08:33:00,45.3,41.0,30.25,SE,134,1.0,2.0,86,0.00,,,0.00,weatherlink.com 1.10,2013-05-06 12:33:00,
2013-05-06 08:48:00,47.2,42.0,30.25,SSE,148,1.0,2.0,83,0.00,,,0.00,weatherlink.com 1.10,2013-05-06 12:48:00,
2013-05-06 09:03:00,48.9,43.0,30.25,SE,126,1.0,2.0,80,0.00,,,0.00,weatherlink.com 1.10,2013-05-06 13:03:00,
2013-05-06 09:18:00,50.1,43.0,30.25,SE,143,2.0,3.0,77,0.00,,,0.00,weatherlink.com 1.10,2013-05-06 13:18:00,
2013-05-06 09:33:00,51.6,44.0,30.25,SE,145,0.0,4.0,74,0.00,,,0.00,weatherlink.com 1.10,2013-05-06 13:33:00,
2013-05-06 09:48:00,53.5,43.0,30.25,SSW,203,1.0,3.0,68,0.00,,,0.00,weatherlink.com 1.10,2013-05-06 13:48:00,
2013-05-06 10:03:00,55.8,44.0,30.25,ESE,108,1.0,3.0,64,0.00,,,0.00,weatherlink.com 1.10,2013-05-06 14:03:00,
2013-05-06 10:18:00,57.0,44.0,30.25,ESE,107,1.0,3.0,63,0.00,,,0.00,weatherlink.com 1.10,2013-05-06 14:18:00,
2013-05-06 10:33:00,58.9,44.0,30.25,ENE,78,2.0,2.0,59,0.00,,,0.00,weatherlink.com 1.10,2013-05-06 14:33:00,
2013-05-06 10:48:00,59.2,44.0,30.25,SSE,155,3.0,4.0,57,0.00,,,0.00,weatherlink.com 1.10,2013-05-06 14:48:00,
2013-05-06 11:03:00,60.4,43.0,30.24,SW,231,1.0,4.0,53,0.00,,,0.00,weatherlink.com 1.10,2013-05-06 15:03:00,
2013-05-06 11:19:00,62.2,43.0,30.24,SW,222,1.0,3.0,50,0.00,,,0.00,weatherlink.com 1.10,2013-05-06 15:19:00,
2013-05-06 11:34:00,62.6,43.0,30.23,South,177,2.0,3.0,49,0.00,,,0.00,weatherlink.com 1.10,2013-05-06 15:34:00,
2013-05-06 11:49:00,63.7,40.0,30.22,East,98,1.0,4.0,42,0.00,,,0.00,weatherlink.com 1.10,2013-05-06 15:49:00,
2013-05-06 12:04:00,65.2,41.0,30.21,SE,127,2.0,4.0,42,0.00,,,0.00,weatherlink.com 1.10,2013-05-06 16:04:00,
2013-05-06 12:19:00,65.7,41.0,30.21,North,4,2.0,4.0,40,0.00,,,0.00,weatherlink.com 1.10,2013-05-06 16:19:00,
2013-05-06 12:34:00,67.3,42.0,30.20,WSW,252,2.0,4.0,40,0.00,,,0.00,weatherlink.com 1.10,2013-05-06 16:34:00,
2013-05-06 12:49:00,68.3,42.0,30.19,ENE,78,1.0,4.0,38,0.00,,,0.00,weatherlink.com 1.10,2013-05-06 16:49:00,
2013-05-06 13:04:00,69.9,39.0,30.19,SE,145,1.0,3.0,33,0.00,,,0.00,weatherlink.com 1.10,2013-05-06 17:04:00,
2013-05-06 13:19:00,70.6,41.0,30.18,South,177,0.0,3.0,34,0.00,,,0.00,weatherlink.com 1.10,2013-05-06 17:19:00,
2013-05-06 13:34:00,71.8,40.0,30.18,SSE,162,0.0,4.0,32,0.00,,,0.00,weatherlink.com 1.10,2013-05-06 17:34:00,
2013-05-06 13:49:00,71.2,39.0,30.18,SE,145,2.0,4.0,31,0.00,,,0.00,weatherlink.com 1.10,2013-05-06 17:49:00,
2013-05-06 14:04:00,72.4,39.0,30.17,SSE,148,2.0,3.0,30,0.00,,,0.00,weatherlink.com 1.10,2013-05-06 18:04:00,
2013-05-06 14:19:00,72.7,39.0,30.16,SSW,210,1.0,3.0,29,0.00,,,0.00,weatherlink.com 1.10,2013-05-06 18:19:00,
2013-05-06 14:34:00,72.2,35.0,30.16,East,101,2.0,4.0,26,0.00,,,0.00,weatherlink.com 1.10,2013-05-06 18:34:00,
2013-05-06 14:49:00,73.8,38.0,30.16,SSE,165,3.0,4.0,27,0.00,,,0.00,weatherlink.com 1.10,2013-05-06 18:49:00,
2013-05-06 15:04:00,73.0,36.0,30.15,SSE,161,1.0,5.0,26,0.00,,,0.00,weatherlink.com 1.10,2013-05-06 19:04:00,
2013-05-06 15:19:00,72.9,32.0,30.14,SW,214,2.0,4.0,22,0.00,,,0.00,weatherlink.com 1.10,2013-05-06 19:19:00,
2013-05-06 15:34:00,72.7,30.0,30.14,SE,128,2.0,5.0,21,0.00,,,0.00,weatherlink.com 1.10,2013-05-06 19:34:00,
2013-05-06 15:49:00,73.0,31.0,30.13,WSW,238,2.0,6.0,21,0.00,,,0.00,weatherlink.com 1.10,2013-05-06 19:49:00,
2013-05-06 16:04:00,72.8,27.0,30.13,SW,226,1.0,3.0,18,0.00,,,0.00,weatherlink.com 1.10,2013-05-06 20:04:00,
2013-05-06 16:19:00,72.4,26.0,30.13,WNW,291,1.0,3.0,18,0.00,,,0.00,weatherlink.com 1.10,2013-05-06 20:19:00,
2013-05-06 16:34:00,72.1,28.0,30.12,WSW,257,1.0,3.0,19,0.00,,,0.00,weatherlink.com 1.10,2013-05-06 20:34:00,
2013-05-06 16:49:00,71.8,29.0,30.12,SE,134,2.0,3.0,20,0.00,,,0.00,weatherlink.com 1.10,2013-05-06 20:49:00,
2013-05-06 17:04:00,71.4,28.0,30.12,ESE,110,3.0,4.0,20,0.00,,,0.00,weatherlink.com 1.10,2013-05-06 21:04:00,
2013-05-06 17:19:00,70.7,29.0,30.11,SW,236,0.0,3.0,21,0.00,,,0.00,weatherlink.com 1.10,2013-05-06 21:19:00,
2013-05-06 17:35:00,69.6,44.0,30.11,SE,136,3.0,6.0,40,0.00,,,0.00,weatherlink.com 1.10,2013-05-06 21:35:00,
2013-05-06 17:50:00,68.0,45.0,30.11,SSE,153,1.0,4.0,44,0.00,,,0.00,weatherlink.com 1.10,2013-05-06 21:50:00,
2013-05-06 18:05:00,66.8,46.0,30.11,South,179,2.0,4.0,48,0.00,,,0.00,weatherlink.com 1.10,2013-05-06 22:05:00,
2013-05-06 18:20:00,65.8,47.0,30.11,WSW,252,3.0,4.0,51,0.00,,,0.00,weatherlink.com 1.10,2013-05-06 22:20:00,
2013-05-06 18:35:00,64.7,47.0,30.11,SSE,149,2.0,4.0,53,0.00,,,0.00,weatherlink.com 1.10,2013-05-06 22:35:00,
2013-05-06 18:50:00,63.6,47.0,30.11,ESE,122,2.0,4.0,55,0.00,,,0.00,weatherlink.com 1.10,2013-05-06 22:50:00,
2013-05-06 19:05:00,62.5,47.0,30.11,SSE,150,1.0,3.0,58,0.00,,,0.00,weatherlink.com 1.10,2013-05-06 23:05:00,
2013-05-06 19:20:00,61.5,47.0,30.11,SE,142,2.0,5.0,60,0.00,,,0.00,weatherlink.com 1.10,2013-05-06 23:20:00,
2013-05-06 19:35:00,60.3,47.0,30.12,SW,226,1.0,3.0,62,0.00,,,0.00,weatherlink.com 1.10,2013-05-06 23:35:00,
2013-05-06 19:50:00,58.9,47.0,30.12,SE,141,0.0,2.0,64,0.00,,,0.00,weatherlink.com 1.10,2013-05-06 23:50:00,
2013-05-06 20:05:00,57.8,46.0,30.12,SE,146,1.0,2.0,66,0.00,,,0.00,weatherlink.com 1.10,2013-05-07 00:05:00,
2013-05-06 20:20:00,56.8,47.0,30.13,South,177,1.0,2.0,69,0.00,,,0.00,weatherlink.com 1.10,2013-05-07 00:20:00,
2013-05-06 20:35:00,55.7,47.0,30.13,SSW,210,1.0,2.0,73,0.00,,,0.00,weatherlink.com 1.10,2013-05-07 00:35:00,
2013-05-06 20:50:00,54.7,47.0,30.13,SSW,198,0.0,1.0,75,0.00,,,0.00,weatherlink.com 1.10,2013-05-07 00:50:00,
2013-05-06 21:05:00,53.8,47.0,30.14,SSW,204,0.0,1.0,78,0.00,,,0.00,weatherlink.com 1.10,2013-05-07 01:05:00,
2013-05-06 21:20:00,53.0,47.0,30.15,SSE,161,0.0,1.0,81,0.00,,,0.00,weatherlink.com 1.10,2013-05-07 01:20:00,
2013-05-06 21:35:00,52.3,47.0,30.15,SSE,160,0.0,1.0,82,0.00,,,0.00,weatherlink.com 1.10,2013-05-07 01:35:00,
2013-05-06 21:50:00,51.6,47.0,30.15,SSE,156,0.0,1.0,84,0.00,,,0.00,weatherlink.com 1.10,2013-05-07 01:50:00,
2013-05-06 22:05:00,51.0,47.0,30.15,SSE,159,0.0,0.0,86,0.00,,,0.00,weatherlink.com 1.10,2013-05-07 02:05:00,
2013-05-06 22:20:00,50.3,47.0,30.15,SSE,159,0.0,0.0,87,0.00,,,0.00,weatherlink.com 1.10,2013-05-07 02:20:00,
2013-05-06 22:35:00,49.7,47.0,30.15,SSE,159,0.0,1.0,89,0.00,,,0.00,weatherlink.com 1.10,2013-05-07 02:35:00,
2013-05-06 22:50:00,49.2,47.0,30.15,SSE,160,0.0,0.0,90,0.00,,,0.00,weatherlink.com 1.10,2013-05-07 02:50:00,
2013-05-06 23:06:00,48.6,46.0,30.15,SSE,159,0.0,0.0,91,0.00,,,0.00,weatherlink.com 1.10,2013-05-07 03:06:00,
2013-05-06 23:21:00,48.1,46.0,30.14,SW,235,0.0,0.0,92,0.00,,,0.00,weatherlink.com 1.10,2013-05-07 03:21:00,
2013-05-06 23:36:00,47.7,46.0,30.14,SW,235,0.0,1.0,93,0.00,,,0.00,weatherlink.com 1.10,2013-05-07 03:36:00,
2013-05-06 23:51:00,47.5,46.0,30.14,SW,235,0.0,1.0,93,0.00,,,0.00,weatherlink.com 1.10,2013-05-07 03:51:00,